| time (UTC) | temp F | wind direction | speed MPH | gust MPH | rain 1hr in | rain 24hr in | rain mn in | humidity % | barometer mb |
| 20260507201505 | 54 | 68 | 0.0 | 3.0 | 0.01 | 0.59 | 0.59 | 96 | 1007.6 |
| 20260507200025 | 54 | 68 | 0.0 | 2.0 | 0.01 | 0.58 | 0.58 | 97 | 1007.8 |
| 20260507194504 | 54 | 58 | 0.0 | 3.0 | 0.02 | 0.58 | 0.58 | 97 | 1008.0 |
| 20260507193004 | 54 | 58 | 0.0 | 3.0 | 0.02 | 0.58 | 0.58 | 97 | 1007.5 |
| 20260507191504 | 55 | 67 | 0.0 | 4.0 | 0.02 | 0.58 | 0.58 | 96 | 1007.6 |
| 20260507190006 | 55 | 60 | 0.0 | 3.0 | 0.01 | 0.57 | 0.57 | 96 | 1007.7 |
| 20260507184504 | 55 | 61 | 0.0 | 6.0 | 0.00 | 0.56 | 0.56 | 96 | 1007.9 |
| 20260507183004 | 55 | 277 | 0.0 | 3.0 | 0.01 | 0.56 | 0.56 | 96 | 1008.1 |
| 20260507181525 | 55 | 61 | 1.0 | 4.0 | 0.03 | 0.56 | 0.56 | 97 | 1008.5 |
| 20260507180005 | 55 | 59 | 2.0 | 9.0 | 0.06 | 0.56 | 0.56 | 96 | 1008.5 |
| 20260507174504 | 56 | 59 | 1.0 | 6.0 | 0.11 | 0.56 | 0.56 | 97 | 1008.6 |
| 20260507173005 | 56 | 64 | 1.0 | 5.0 | 0.18 | 0.55 | 0.55 | 97 | 1008.7 |
| 20260507171504 | 56 | 60 | 1.0 | 6.0 | 0.33 | 0.53 | 0.53 | 96 | 1009.1 |
| 20260507170026 | 56 | 61 | 2.0 | 6.0 | 0.34 | 0.50 | 0.50 | 96 | 1009.4 |
| 20260507164504 | 56 | 61 | 2.0 | 9.0 | 0.32 | 0.45 | 0.45 | 95 | 1009.2 |
| 20260507163025 | 58 | 66 | 2.0 | 4.0 | 0.27 | 0.36 | 0.36 | 96 | 1009.6 |
| 20260507161504 | 58 | 63 | 2.0 | 8.0 | 0.11 | 0.20 | 0.20 | 95 | 1009.4 |
| 20260507160005 | 60 | 67 | 1.0 | 5.0 | 0.07 | 0.16 | 0.16 | 93 | 1009.2 |
| 20260507154525 | 64 | 76 | 1.0 | 4.0 | 0.04 | 0.13 | 0.13 | 93 | 1008.7 |
| 20260507153004 | 69 | 134 | 0.0 | 1.0 | 0.00 | 0.09 | 0.09 | 97 | 1008.3 |
| 20260507151504 | 69 | 0 | 0.0 | 0.0 | 0.00 | 0.09 | 0.09 | 97 | 1008.1 |
| 20260507150005 | 69 | 0 | 0.0 | 0.0 | 0.00 | 0.09 | 0.09 | 97 | 1008.3 |
| 20260507144504 | 69 | 132 | 0.0 | 1.0 | 0.00 | 0.09 | 0.09 | 97 | 1007.9 |
| 20260507143004 | 69 | 248 | 0.0 | 2.0 | 0.00 | 0.09 | 0.09 | 97 | 1008.3 |
| 20260507141503 | 69 | 224 | 0.0 | 3.0 | 0.00 | 0.09 | 0.09 | 97 | 1008.3 |
| 20260507140004 | 68 | 158 | 0.0 | 2.0 | 0.00 | 0.09 | 0.09 | 97 | 1008.5 |
| 20260507134504 | 68 | 226 | 0.0 | 4.0 | 0.00 | 0.09 | 0.09 | 97 | 1008.6 |
| 20260507133026 | 68 | 177 | 0.0 | 3.0 | 0.00 | 0.09 | 0.09 | 97 | 1008.7 |
| 20260507131504 | 68 | 186 | 0.0 | 1.0 | 0.01 | 0.09 | 0.09 | 97 | 1008.8 |
| 20260507130025 | 68 | 143 | 0.0 | 4.0 | 0.02 | 0.09 | 0.09 | 97 | 1009.0 |
| 20260507124504 | 67 | 247 | 0.0 | 2.0 | 0.02 | 0.09 | 0.09 | 97 | 1009.2 |
| 20260507123004 | 67 | 230 | 0.0 | 4.0 | 0.02 | 0.09 | 0.09 | 97 | 1009.1 |
| 20260507121525 | 67 | 189 | 0.0 | 3.0 | 0.01 | 0.08 | 0.08 | 97 | 1009.3 |
| 20260507120005 | 67 | 174 | 0.0 | 3.0 | 0.00 | 0.07 | 0.07 | 97 | 1009.4 |
| 20260507114505 | 67 | 169 | 0.0 | 2.0 | 0.00 | 0.07 | 0.07 | 97 | 1009.5 |
| 20260507113004 | 67 | 220 | 0.0 | 4.0 | 0.01 | 0.07 | 0.07 | 97 | 1009.6 |
| 20260507111506 | 67 | 227 | 0.0 | 4.0 | 0.01 | 0.07 | 0.07 | 97 | 1009.4 |
| 20260507110005 | 66 | 148 | 0.0 | 3.0 | 0.01 | 0.07 | 0.07 | 97 | 1009.2 |
| 20260507104525 | 66 | 253 | 0.0 | 6.0 | 0.01 | 0.07 | 0.07 | 97 | 1009.2 |
| 20260507103004 | 66 | 139 | 0.0 | 2.0 | 0.00 | 0.06 | 0.06 | 97 | 1009.0 |
| 20260507101503 | 66 | 179 | 0.0 | 3.0 | 0.00 | 0.06 | 0.06 | 96 | 1009.2 |
| 20260507100025 | 66 | 146 | 0.0 | 3.0 | 0.00 | 0.06 | 0.06 | 96 | 1009.2 |
| 20260507094525 | 66 | 132 | 0.0 | 1.0 | 0.00 | 0.06 | 0.06 | 96 | 1009.0 |
| 20260507093004 | 66 | 187 | 0.0 | 2.0 | 0.00 | 0.06 | 0.06 | 96 | 1009.0 |
| 20260507091503 | 66 | 173 | 0.0 | 1.0 | 0.00 | 0.06 | 0.06 | 96 | 1009.0 |
| 20260507090004 | 66 | 142 | 0.0 | 1.0 | 0.00 | 0.06 | 0.06 | 95 | 1008.9 |
| 20260507084504 | 66 | 162 | 0.0 | 2.0 | 0.01 | 0.06 | 0.06 | 95 | 1009.1 |
| 20260507083004 | 66 | 199 | 0.0 | 3.0 | 0.01 | 0.06 | 0.06 | 95 | 1009.4 |
| 20260507081504 | 66 | 229 | 0.0 | 3.0 | 0.02 | 0.06 | 0.06 | 95 | 1009.7 |
| 20260507080004 | 66 | 127 | 0.0 | 2.0 | 0.03 | 0.06 | 0.06 | 94 | 1009.6 |
| 20260507074505 | 66 | 0 | 0.0 | 0.0 | 0.05 | 0.05 | 0.05 | 93 | 1010.3 |
| 20260507073005 | 66 | 135 | 0.0 | 1.0 | 0.05 | 0.05 | 0.05 | 92 | 1009.9 |
| 20260507071505 | 67 | 231 | 0.0 | 3.0 | 0.04 | 0.04 | 0.04 | 90 | 1009.5 |
| 20260507070010 | 68 | 241 | 1.0 | 6.0 | 0.03 | 0.03 | 0.03 | 87 | 1009.3 |
| 20260507064506 | 70 | 186 | 0.0 | 6.0 | 0.00 | 0.00 | 0.00 | 83 | 1010.0 |
| 20260507063006 | 70 | 158 | 0.0 | 3.0 | 0.00 | 0.00 | 0.00 | 81 | 1010.1 |
| 20260507061505 | 70 | 231 | 0.0 | 1.0 | 0.00 | 0.00 | 0.00 | 81 | 1010.7 |
| 20260507060005 | 70 | 164 | 0.0 | 1.0 | 0.00 | 0.00 | 0.00 | 80 | 1010.6 |
| 20260507054505 | 70 | 188 | 0.0 | 1.0 | 0.00 | 0.00 | 0.00 | 80 | 1010.6 |
| 20260507053005 | 70 | 210 | 0.0 | 1.0 | 0.00 | 0.00 | 0.00 | 79 | 1010.7 |
| 20260507051526 | 71 | 182 | 0.0 | 3.0 | 0.00 | 0.00 | 0.00 | 79 | 1010.7 |
| 20260507050006 | 71 | 170 | 0.0 | 2.0 | 0.00 | 0.00 | 0.00 | 79 | 1010.7 |
| 20260507044526 | 71 | 175 | 0.0 | 1.0 | 0.00 | 0.00 | 0.00 | 78 | 1010.7 |
| 20260507043005 | 71 | 193 | 0.0 | 4.0 | 0.00 | 0.00 | 0.00 | 77 | 1010.6 |
| 20260507041526 | 71 | 231 | 1.0 | 4.0 | 0.00 | 0.00 | 0.00 | 77 | 1010.8 |
| 20260507040006 | 71 | 177 | 0.0 | 5.0 | 0.00 | 0.00 | 0.00 | 76 | 1010.6 |
| 20260507034505 | 71 | 198 | 0.0 | 3.0 | 0.00 | 0.00 | 0.00 | 75 | 1010.8 |
| 20260507033026 | 71 | 208 | 0.0 | 2.0 | 0.00 | 0.00 | 0.00 | 74 | 1010.7 |
| 20260507031505 | 72 | 188 | 0.0 | 5.0 | 0.00 | 0.00 | 0.00 | 73 | 1010.9 |
| 20260507030005 | 72 | 227 | 0.0 | 4.0 | 0.00 | 0.00 | 0.00 | 72 | 1010.7 |
| 20260507024527 | 72 | 231 | 0.0 | 5.0 | 0.00 | 0.00 | 0.00 | 71 | 1010.7 |
| 20260507023025 | 72 | 197 | 0.0 | 3.0 | 0.00 | 0.00 | 0.00 | 70 | 1010.9 |
| 20260507021505 | 72 | 198 | 0.0 | 3.0 | 0.00 | 0.00 | 0.00 | 69 | 1010.9 |
| 20260507020005 | 73 | 206 | 1.0 | 3.0 | 0.00 | 0.00 | 0.00 | 68 | 1010.6 |
| 20260507014505 | 73 | 225 | 0.0 | 6.0 | 0.00 | 0.00 | 0.00 | 67 | 1010.9 |
| 20260507013005 | 73 | 185 | 0.0 | 3.0 | 0.00 | 0.00 | 0.00 | 66 | 1010.7 |
| 20260507011505 | 74 | 249 | 1.0 | 5.0 | 0.00 | 0.00 | 0.00 | 64 | 1010.9 |
| 20260507010005 | 75 | 184 | 1.0 | 6.0 | 0.00 | 0.00 | 0.00 | 63 | 1010.7 |
| 20260507004504 | 75 | 188 | 1.0 | 6.0 | 0.00 | 0.00 | 0.00 | 63 | 1010.7 |
| 20260507003004 | 76 | 245 | 1.0 | 5.0 | 0.00 | 0.00 | 0.00 | 64 | 1010.5 |
| 20260507001504 | 76 | 226 | 2.0 | 8.0 | 0.00 | 0.00 | 0.00 | 67 | 1010.2 |
| 20260507000005 | 76 | 257 | 1.0 | 8.0 | 0.00 | 0.00 | 0.00 | 68 | 1010.0 |
| 20260506234526 | 77 | 254 | 1.0 | 7.0 | 0.00 | 0.00 | 0.00 | 69 | 1010.1 |
| 20260506233005 | 77 | 223 | 1.0 | 8.0 | 0.00 | 0.00 | 0.00 | 70 | 1010.0 |
| 20260506231506 | 77 | 246 | 1.0 | 5.0 | 0.00 | 0.00 | 0.00 | 71 | 1009.8 |
| 20260506230004 | 78 | 214 | 1.0 | 8.0 | 0.00 | 0.00 | 0.00 | 71 | 1009.6 |
| 20260506224504 | 78 | 273 | 0.0 | 5.0 | 0.00 | 0.00 | 0.00 | 71 | 1009.7 |
| 20260506223005 | 78 | 220 | 1.0 | 5.0 | 0.00 | 0.00 | 0.00 | 71 | 1009.6 |
| 20260506221504 | 79 | 249 | 1.0 | 5.0 | 0.00 | 0.00 | 0.00 | 69 | 1009.6 |
| 20260506220004 | 79 | 239 | 1.0 | 3.0 | 0.00 | 0.00 | 0.00 | 68 | 1009.7 |
| 20260506214504 | 80 | 230 | 0.0 | 5.0 | 0.00 | 0.00 | 0.00 | 65 | 1009.7 |
| 20260506213005 | 80 | 156 | 0.0 | 3.0 | 0.00 | 0.00 | 0.00 | 62 | 1009.8 |
| 20260506211504 | 81 | 153 | 1.0 | 3.0 | 0.00 | 0.00 | 0.00 | 60 | 1009.8 |
| 20260506210005 | 81 | 169 | 2.0 | 7.0 | 0.00 | 0.00 | 0.00 | 61 | 1010.2 |
| 20260506204504 | 81 | 200 | 1.0 | 6.0 | 0.00 | 0.00 | 0.00 | 62 | 1010.4 |
| 20260506203025 | 81 | 225 | 1.0 | 8.0 | 0.00 | 0.00 | 0.00 | 61 | 1010.7 |
| 20260506201525 | 82 | 156 | 1.0 | 7.0 | 0.00 | 0.00 | 0.00 | 63 | 1010.9 |